Achtergracht — PCCL — position and weather

sailwx.info

Track history (hours):
 
Tides and Currents Weather Stations Pressure Air Temp Water Temp Dewpoint Dewpoint Depression Visibility Wind Speed Wind Dir Waves Ship Positions

Achtergracht

Last reported at 2016-May-14 19:27 UTC. Time now 2016-May-26 06:54 UTC.
Position N 25°49' W 076°57'.
Warning: this ship's position is 11 days out of date.

Length 130 m; beam 19 m; draft 9 m.

Type: Cargo ship. MMSI: 244601000.

Date/timePositionNaut miles runAvg speedWind from/ knotsBaromVisibWave heightAir tempDewpointWater temp
2016-May-14 19:27N 25°49' W 076°57'14711.4
2016-May-14 06:32N 26°36' W 079°33'9 9.5
2016-May-14 05:33N 26°40' W 079°43'9 9.1
2016-May-14 04:33N 26°43' W 079°52'10 8.8
2016-May-14 03:29N 26°46' W 080°02'1 0.2
2016-May-14 00:03N 26°46' W 080°03'0 0.0
2016-May-13 23:33N 26°46' W 080°03'0 0.0
2016-May-13 22:30N 26°46' W 080°03'0 0.0
2016-May-13 21:33N 26°46' W 080°03'0 0.0
2016-May-13 20:33N 26°46' W 080°03'0 0.0
2016-May-13 19:24N 26°46' W 080°03'0 0.0
2016-May-13 17:33N 26°46' W 080°03'0 0.0
2016-May-13 16:33N 26°46' W 080°03'0 0.0
2016-May-13 14:09N 26°46' W 080°03'0 0.0
2016-May-13 13:33N 26°46' W 080°03'0 0.0
2016-May-13 12:30N 26°46' W 080°03'0 0.0
2016-May-13 11:33N 26°46' W 080°03'0 0.1
2016-May-13 10:33N 26°46' W 080°03'8 6.9
2016-May-13 09:27N 26°40' W 079°58'1112.6
2016-May-13 08:33N 26°29' W 079°55'1312.7
2016-May-13 07:33N 26°16' W 079°52'1312.7
2016-May-13 06:33N 26°04' W 079°48'1312.8
2016-May-13 05:33N 25°51' W 079°45'  
2016-May-10 01:09N 18°39' W 066°04'711.9
2016-May-10 00:33N 18°37' W 065°57'  
Track history (hours):
 
Tides and Currents Weather Stations Pressure Air Temp Water Temp Dewpoint Dewpoint Depression Visibility Wind Speed Wind Dir Waves Ship Positions

Achtergracht

Last reported at 2016-May-14 19:27 UTC. Time now 2016-May-26 06:54 UTC.
Position N 25°49' W 076°57'.
Warning: this ship's position is 11 days out of date.

Length 130 m; beam 19 m; draft 9 m.

Type: Cargo ship. MMSI: 244601000.

Date/timePositionNaut miles runAvg speedWind from/ knotsBaromVisibWave heightAir tempDewpointWater temp
2016-May-14 19:27N 25°49' W 076°57'14711.4
2016-May-14 06:32N 26°36' W 079°33'9 9.5
2016-May-14 05:33N 26°40' W 079°43'9 9.1
2016-May-14 04:33N 26°43' W 079°52'10 8.8
2016-May-14 03:29N 26°46' W 080°02'1 0.2
2016-May-14 00:03N 26°46' W 080°03'0 0.0
2016-May-13 23:33N 26°46' W 080°03'0 0.0
2016-May-13 22:30N 26°46' W 080°03'0 0.0
2016-May-13 21:33N 26°46' W 080°03'0 0.0
2016-May-13 20:33N 26°46' W 080°03'0 0.0
2016-May-13 19:24N 26°46' W 080°03'0 0.0
2016-May-13 17:33N 26°46' W 080°03'0 0.0
2016-May-13 16:33N 26°46' W 080°03'0 0.0
2016-May-13 14:09N 26°46' W 080°03'0 0.0
2016-May-13 13:33N 26°46' W 080°03'0 0.0
2016-May-13 12:30N 26°46' W 080°03'0 0.0
2016-May-13 11:33N 26°46' W 080°03'0 0.1
2016-May-13 10:33N 26°46' W 080°03'8 6.9
2016-May-13 09:27N 26°40' W 079°58'1112.6
2016-May-13 08:33N 26°29' W 079°55'1312.7
2016-May-13 07:33N 26°16' W 079°52'1312.7
2016-May-13 06:33N 26°04' W 079°48'1312.8
2016-May-13 05:33N 25°51' W 079°45'  
2016-May-10 01:09N 18°39' W 066°04'711.9
2016-May-10 00:33N 18°37' W 065°57'  

Dump ship's entire track history